Flight Track Log - Related Links

Times and Time Zones

All times are in EDT time to prevent confusion due to time zone crossing. See the ASH3770 flight status page for this flight to view local times or setup timezone preferences in your user account.

Time Position Orientation Groundspeed Altitude Reporting Facility
EDT Latitude Longitude Course Direction KTS MPH feet Rate Location/Type
Fri 10:31:53 PM 42.0000 -87.9333 77° East 164 189 1,400  Level Chicago TRACON
Fri 10:32:47 PM 42.0167 -87.9000 56° Northeast 209 241 2,700 1,737 Climbing Chicago TRACON
Fri 10:33:47 PM 42.0500 -87.8167 62° Northeast 262 302 4,700 2,300 Climbing Chicago TRACON
Fri 10:35:47 PM 42.0661 -87.6067 84° East 279 321 9,600 2,505 Climbing Chicago Center
Fri 10:36:49 PM 42.0758 -87.4989 83° East 287 330 12,300 2,439 Climbing Chicago Center
Fri 10:37:00 PM 42.0867 -87.1297 77° East  Level FlightAware Approximate
Fri 10:37:50 PM 42.0853 -87.3825 84° East 303 349 14,600  Level Chicago Center
Fri 10:38:51 PM 42.0947 -87.2644 84° East 316 364 15,000 488 Climbing Chicago Center
Fri 10:39:53 PM 42.1050 -87.1456 83° East 320 368 15,600 976 Climbing Chicago Center
Fri 10:40:54 PM 42.1147 -87.0200 84° East 333 383 17,000 1,463 Climbing Chicago Center
Fri 10:41:56 PM 42.1192 -86.8558 88° East 359 413 18,600 1,415 Climbing Chicago Center
Fri 10:42:57 PM 42.1250 -86.7194 87° East 366 421 19,900 1,230 Climbing Chicago Center
Fri 10:43:58 PM 42.1300 -86.5711 87° East 381 438 21,100 1,122 Climbing Chicago Center
Fri 10:45:00 PM 42.1339 -86.4264 88° East 385 443 22,200 1,024 Climbing Chicago Center
Fri 10:46:01 PM 42.1383 -86.2772 88° East 396 456 23,200 1,180 Climbing Chicago Center
Fri 10:47:02 PM 42.1442 -86.1242 87° East 406 467 24,600 1,366 Climbing Chicago Center
Fri 10:48:04 PM 42.1425 -85.9706 91° East 410 472 26,000 1,268 Climbing Chicago Center
Fri 10:49:05 PM 42.1414 -85.8222 91° East 421 484 27,200 1,230 Climbing Chicago Center
Fri 10:50:06 PM 42.1400 -85.6289 90° East 436 502 28,500 1,131 Climbing Chicago Center
Fri 10:51:07 PM 42.1378 -85.4606 91° East 452 520 29,500 927 Climbing Chicago Center
Fri 10:52:09 PM 42.1361 -85.2883 91° East 463 533 30,400 927 Climbing Chicago Center
Fri 10:53:10 PM 42.1347 -85.1117 91° East 472 543 31,400 976 Climbing Chicago Center
Fri 10:54:12 PM 42.1317 -84.9378 91° East 469 540 32,400 934 Climbing Chicago Center
Fri 10:55:12 PM 42.1469 -84.7631 83° East 472 543 33,300 942 Climbing Chicago Center
Fri 10:56:13 PM 42.1619 -84.5897 83° East 469 540 34,300 976 Climbing Chicago Center
Fri 10:57:15 PM 42.1758 -84.4172 84° East 467 537 35,300 976 Climbing Chicago Center
Fri 10:58:16 PM 42.1894 -84.2447 84° East 465 535 36,300 836 Climbing Chicago Center
Fri 10:59:17 PM 42.2067 -84.0383 84° East 462 532 37,000 344 Climbing Chicago Center
Fri 11:00:18 PM 42.2197 -83.8631 84° East 469 540 37,000  Level Chicago Center
Fri 11:01:19 PM 42.2339 -83.6828 84° East 484 557 37,000  Level Chicago Center
Fri 11:02:20 PM 42.2469 -83.5039 84° East 482 555 37,000  Level Chicago Center
Fri 11:03:20 PM 42.2583 -83.3353 85° East 478 550 37,000  Level Cleveland Center
Fri 11:04:20 PM 42.2689 -83.1478 86° East 487 560 37,000  Level Cleveland Center
Fri 11:05:20 PM 42.2833 -82.9689 84° East 487 560 37,000  Level Cleveland Center
Fri 11:06:20 PM 42.2950 -82.7925 85° East 482 555 37,000  Level Cleveland Center
Fri 11:07:20 PM 42.3067 -82.6131 85° East 477 549 37,000  Level Cleveland Center
Fri 11:08:20 PM 42.3181 -82.4308 85° East 477 549 37,000  Level Cleveland Center
Fri 11:09:20 PM 42.3292 -82.2514 85° East 477 549 37,000  Level Cleveland Center
Fri 11:10:20 PM 42.3444 -82.0553 84° East 477 549 37,000  Level Cleveland Center
Fri 11:11:20 PM 42.3569 -81.8756 85° East 477 549 37,000  Level Cleveland Center
Fri 11:12:20 PM 42.3672 -81.6933 86° East 477 549 37,000  Level Cleveland Center
Fri 11:13:20 PM 42.3772 -81.5136 86° East 482 555 37,000  Level Cleveland Center
Fri 11:14:20 PM 42.3867 -81.3533 85° East 476 548 37,000  Level Cleveland Center
Fri 11:15:20 PM 42.3961 -81.1736 86° East 476 548 37,000  Level Cleveland Center
Fri 11:16:20 PM 42.4053 -80.9908 86° East 481 554 37,000  Level Cleveland Center
Fri 11:17:20 PM 42.4161 -80.8111 85° East 481 554 37,000  Level Cleveland Center
Fri 11:18:20 PM 42.4228 -80.6311 87° East 476 548 37,000  Level Cleveland Center
Fri 11:19:20 PM 42.4331 -80.4508 86° East 481 554 37,000  Level Cleveland Center
Fri 11:20:20 PM 42.4411 -80.2511 87° East 481 554 37,000  Level Cleveland Center
Fri 11:21:20 PM 42.4508 -80.0683 86° East 481 554 37,000  Level Cleveland Center
Fri 11:22:20 PM 42.4583 -79.9022 86° East 481 554 37,000  Level Cleveland Center
Fri 11:23:20 PM 42.4653 -79.7050 87° East 481 554 37,000  Level Cleveland Center
Fri 11:24:20 PM 42.4761 -79.5219 85° East 481 554 37,000  Level Cleveland Center
Fri 11:25:20 PM 42.4806 -79.3389 88° East 481 554 37,000  Level Cleveland Center
Fri 11:26:20 PM 42.4889 -79.1528 86° East 481 554 37,000  Level Cleveland Center
Fri 11:27:20 PM 42.4947 -78.9669 87° East 481 554 37,000  Level Cleveland Center
Fri 11:28:20 PM 42.5003 -78.7781 88° East 487 560 37,000  Level Cleveland Center
Fri 11:29:20 PM 42.5056 -78.5947 88° East 487 560 37,000  Level Cleveland Center
Fri 11:30:20 PM 42.5106 -78.4086 88° East 492 566 37,000 -150 Level Cleveland Center
Fri 11:31:20 PM 42.5175 -78.2225 87° East 497 572 36,700 -650 Descending Cleveland Center
Fri 11:32:20 PM 42.5217 -78.0308 88° East 497 572 35,700 -1,000 Descending Cleveland Center
Fri 11:33:20 PM 42.5258 -77.8447 88° East 497 572 34,700 -1,050 Descending Cleveland Center
Fri 11:34:20 PM 42.5314 -77.6528 88° East 502 578 33,600 -850 Descending Cleveland Center
Fri 11:35:20 PM 42.5367 -77.4581 88° East 502 578 33,000 -300 Descending Cleveland Center
Fri 11:36:20 PM 42.5397 -77.2661 89° East 508 585 33,000  Level Cleveland Center
Fri 11:38:44 PM 42.5481 -76.7978 88° East 530 610 33,000  Level Boston Center
Fri 11:39:44 PM 42.5514 -76.6006 89° East 524 603 33,000  Level Boston Center
Fri 11:40:44 PM 42.5542 -76.4064 89° East 524 603 33,000  Level Boston Center
Fri 11:41:44 PM 42.5378 -76.2108 96° East 524 603 33,000  Level Boston Center
Fri 11:42:44 PM 42.5067 -76.0172 102° East 524 603 33,000  Level Boston Center
Fri 11:43:44 PM 42.4753 -75.8156 102° East 530 610 33,000  Level Boston Center
Fri 11:44:44 PM 42.4433 -75.6225 103° East 530 610 33,000  Level Boston Center
Fri 11:45:44 PM 42.4133 -75.4267 102° East 530 610 33,000 -250 Level Boston Center
Fri 11:46:44 PM 42.3806 -75.2311 103° East 530 610 32,500 -750 Descending Boston Center
Fri 11:47:44 PM 42.3481 -75.0303 102° East 535 616 31,500 -1,000 Descending Boston Center
Fri 11:48:44 PM 42.3167 -74.8381 102° East 527 606 30,500 -1,550 Descending Boston Center
Fri 11:49:44 PM 42.2850 -74.6486 103° East 520 598 28,400 -2,650 Descending Boston Center
Fri 11:50:44 PM 42.2531 -74.4681 103° East 507 583 25,200 -2,900 Descending Boston Center
Fri 11:51:44 PM 42.2289 -74.3047 101° East 491 565 22,600 -1,900 Descending Boston Center
Fri 11:52:44 PM 42.2019 -74.1497 103° East 479 551 21,400 -1,250 Descending Boston Center
Fri 11:53:44 PM 42.1653 -73.9442 103° East 469 540 20,100 -2,000 Descending Boston Center
Fri 11:54:44 PM 42.1403 -73.7925 102° East 469 540 17,400 -3,034 Descending Boston Center
Fri 11:55:11 PM 42.1244 -73.6969 103° East 452 520 15,700 -3,000 Descending Boston Center
Fri 11:55:44 PM 42.1086 -73.6239 106° East 444 511 14,400 -2,375 Descending Boston Center
Fri 11:55:59 PM 42.1008 -73.5817 104° East 426 490 13,800 -1,466 Descending Boston Center
Fri 11:57:00 PM 42.0577 -73.4281 100° East  Level FlightAware Approximate
Fri 11:57:55 PM 42.0550 -73.3319 100° East 334 384 11,200  Level Boston Center
Fri 11:58:44 PM 42.0433 -73.2453 100° East 309 356 9,900 -1,541 Descending Boston Center
Fri 11:59:44 PM 42.0250 -73.1472 104° East 297 342 8,400 -1,100 Descending Boston Center
Sat 12:00:44 AM 41.9839 -73.0686 125° Southeast 269 310 7,700 -1,000 Descending Boston Center
Sat 12:01:56 AM 41.9236 -73.0400 161° South 229 264 6,200 -1,328 Descending Boston Center
Sat 12:02:46 AM 41.8486 -73.0169 167° South 241 277 5,000 -1,200 Descending Boston Center
Sat 12:03:46 AM 41.8011 -72.9664 142° Southeast 213 245 4,000 -496 Descending Boston Center
Sat 12:04:47 AM 41.7742 -72.9133 124° Southeast 175 201 4,000 -104 Level Boston Center
Sat 12:05:41 AM 41.8014 -72.8717 49° Northeast 186 214 3,800 -261 Descending Boston Center
Sat 12:05:56 AM 41.8097 -72.8606 45° Northeast 143 165 3,700 -885 Descending Boston Center
Sat 12:06:42 AM 41.8392 -72.8275 40° Northeast 172 198 2,900 -953 Descending Boston Center
Sat 12:07:43 AM 41.8664 -72.7858 49° Northeast 163 188 2,000 -835 Descending Boston Center
Sat 12:08:37 AM 41.8936 -72.7525 42° Northeast 147 169 1,300 -740 Descending Boston Center
Sat 12:08:56 AM 41.9019 -72.7414 45° Northeast 144 166 1,100 -689 Descending Boston Center
Sat 12:09:38 AM 41.9186 -72.7192 45° Northeast 129 148 600 -600 Descending Boston Center
Sat 12:09:56 AM 41.9269 -72.7053 51° Northeast 132 152 500 -333 Descending Boston Center
Sat 12:11:00 AM 41.9333 -72.6833 53° Northeast  Level FlightAware Approximate
Sat 12:18:00 AM 41.9392 -72.6834 53° Northeast  Level Estimated
Sat 12:19:00 AM 41.9333 -72.6833 53° Northeast  Level FlightAware Approximate
Sat 12:20:00 AM 41.9392 -72.6834 53° Northeast  Level Estimated
Sat 12:21:00 AM 41.9333 -72.6833 53° Northeast  Level FlightAware Approximate

Login

Don't have an account? Register now (free) for customized features, flight alerts, and more!